Time;durP1;ratioP1;P1;durP2;ratioP2;P2;SDS_P1;SDS_P2;PMS_P1;PMS_P2;Temp;Humidity;BMP_temperature;BMP_pressure;BME280_temperature;BME280_humidity;BME280_pressure;Samples;Min_cycle;Max_cycle;Signal;HPM_P1;HPM_P2
2022/02/13 00:01:09;;;;;;;;;;;;;;;-0.47;95.18;101620.97;2567792;30;137209;-40
2022/02/13 00:03:37;;;;;;;;;;;;;;;-0.47;95.30;101610.25;2568382;30;136899;-40
2022/02/13 00:06:05;;;;;;;;;;;;;;;-0.47;95.08;101609.38;2568275;30;138424;-40
2022/02/13 00:08:33;;;;;;;;;;;;;;;-0.40;94.88;101609.78;2568342;30;137221;-40
2022/02/13 00:11:12;;;;;;;;;;;;;;;-0.36;94.48;101611.22;2566421;30;138955;-40
2022/02/13 00:13:39;;;;;;;;;;;;;;;-0.40;94.43;101609.78;2568605;30;137690;-40
2022/02/13 00:16:07;;;;;;;;;;;;;;;-0.44;94.30;101599.28;2569747;30;138380;-40
2022/02/13 00:18:35;;;;;;;;;;;;;;;-0.50;94.62;101605.16;2567310;30;136782;-40
2022/02/13 00:21:03;;;;;;;;;;;;;;;-0.53;94.82;101600.03;2565333;30;138541;-40
2022/02/13 00:23:31;;;;;;;;;;;;;;;-0.50;94.67;101596.22;2567365;30;136977;-40
2022/02/13 00:26:00;;;;;;;;;;;;;;;-0.44;94.74;101596.59;2567820;30;138887;-40
2022/02/13 00:28:27;;;;;;;;;;;;;;;-0.45;94.35;101586.00;2567032;30;137378;-40
2022/02/13 00:30:55;;;;;;;;;;;;;;;-0.45;94.61;101581.50;2567935;30;138975;-40
2022/02/13 00:33:23;;;;;;;;;;;;;;;-0.47;93.98;101578.09;2568723;30;137136;-40
2022/02/13 00:35:51;;;;;;;;;;;;;;;-0.50;94.57;101581.00;2565901;30;138311;-40
2022/02/13 00:38:18;;;;;;;;;;;;;;;-0.53;94.41;101578.56;2568018;30;137223;-40
2022/02/13 00:40:46;;;;;;;;;;;;;;;-0.48;93.89;101570.16;2568389;30;137502;-40
2022/02/13 00:43:14;;;;;;;;;;;;;;;-0.50;94.50;101564.06;2566971;30;137825;-40
2022/02/13 00:45:42;;;;;;;;;;;;;;;-0.52;94.64;101556.16;2568372;30;138270;-40
2022/02/13 00:48:10;;;;;;;;;;;;;;;-0.44;94.46;101555.53;2568397;30;136978;-40
2022/02/13 00:50:38;;;;;;;;;;;;;;;-0.39;94.13;101563.22;2568266;30;137450;-40
2022/02/13 00:53:06;;;;;;;;;;;;;;;-0.47;94.02;101550.41;2569611;30;137091;-40
2022/02/13 00:55:34;;;;;;;;;;;;;;;-0.48;94.37;101554.06;2568317;30;138244;-40
2022/02/13 00:58:02;;;;;;;;;;;;;;;-0.46;94.38;101557.47;2567768;30;137358;-40
2022/02/13 01:00:29;;;;;;;;;;;;;;;-0.50;94.21;101562.25;2569007;30;139172;-40
2022/02/13 01:03:01;;;;;;;;;;;;;;;-0.55;94.55;101550.16;2569702;30;137955;-40
2022/02/13 01:05:29;;;;;;;;;;;;;;;-0.51;94.29;101555.19;2569194;30;138544;-40
2022/02/13 01:07:56;;;;;;;;;;;;;;;-0.61;94.44;101554.19;2568805;30;137027;-40
2022/02/13 01:10:31;;;;;;;;;;;;;;;-0.60;94.33;101551.38;2568499;30;139805;-41
2022/02/13 01:12:58;;;;;;;;;;;;;;;-0.69;94.47;101557.47;2567431;30;138168;-40
2022/02/13 01:15:30;;;;;;;;;;;;;;;-0.62;94.13;101557.84;2566602;30;139348;-40
2022/02/13 01:17:58;;;;;;;;;;;;;;;-0.54;93.30;101558.06;2568229;30;137269;-40
2022/02/13 01:20:28;;;;;;;;;;;;;;;-0.59;93.58;101553.09;2568174;30;138244;-40
2022/02/13 01:22:56;;;;;;;;;;;;;;;-0.61;93.26;101552.38;2568692;30;137052;-40
2022/02/13 01:25:24;;;;;;;;;;;;;;;-0.57;93.39;101546.75;2569180;30;138480;-40
2022/02/13 01:27:52;;;;;;;;;;;;;;;-0.59;93.09;101537.00;2567137;30;137987;-40
2022/02/13 01:30:24;;;;;;;;;;;;;;;-0.53;92.64;101529.44;2568930;30;138216;-40
2022/02/13 01:32:52;;;;;;;;;;;;;;;-0.58;92.45;101532.50;2569186;30;137406;-40
2022/02/13 01:35:25;;;;;;;;;;;;;;;-0.58;92.28;101524.44;2567420;30;138542;-40
2022/02/13 01:37:53;;;;;;;;;;;;;;;-0.56;92.36;101517.13;2568211;30;138116;-40
2022/02/13 01:40:25;;;;;;;;;;;;;;;-0.58;92.39;101521.75;2568572;30;138476;-40
2022/02/13 01:42:53;;;;;;;;;;;;;;;-0.56;92.05;101525.19;2567942;30;137115;-40
2022/02/13 01:45:21;;;;;;;;;;;;;;;-0.57;91.67;101512.75;2567738;30;137495;-38
2022/02/13 01:47:48;;;;;;;;;;;;;;;-0.55;91.82;101516.16;2568763;30;137641;-38
2022/02/13 01:50:19;;;;;;;;;;;;;;;-0.51;91.75;101517.66;2568228;30;139424;-38
2022/02/13 01:52:50;;;;;;;;;;;;;;;-0.56;91.30;101514.44;2567449;30;137960;-38
2022/02/13 01:55:19;;;;;;;;;;;;;;;-0.51;91.59;101517.66;2569077;30;137196;-37
2022/02/13 01:57:47;;;;;;;;;;;;;;;-0.59;91.91;101514.69;2568061;30;136556;-38
2022/02/13 02:00:14;;;;;;;;;;;;;;;-0.55;91.36;101515.31;2566393;30;137716;-38
2022/02/13 02:02:42;;;;;;;;;;;;;;;-0.50;90.95;101514.00;2568684;30;137334;-38
2022/02/13 02:05:10;;;;;;;;;;;;;;;-0.57;91.39;101504.72;2569331;30;138234;-38
2022/02/13 02:07:38;;;;;;;;;;;;;;;-0.60;91.22;101507.63;2567868;30;137037;-38
2022/02/13 02:10:06;;;;;;;;;;;;;;;-0.72;92.33;101509.47;2569740;30;138215;-38
2022/02/13 02:12:35;;;;;;;;;;;;;;;-0.76;92.76;101508.00;2569467;30;137173;-38
2022/02/13 02:15:03;;;;;;;;;;;;;;;-0.79;92.55;101503.75;2568849;30;139268;-38
2022/02/13 02:17:32;;;;;;;;;;;;;;;-0.77;92.37;101503.63;2567402;30;137306;-38
2022/02/13 02:19:59;;;;;;;;;;;;;;;-0.78;92.67;101507.28;2568377;30;138492;-38
2022/02/13 02:22:27;;;;;;;;;;;;;;;-0.80;92.75;101507.38;2567701;30;137806;-38
2022/02/13 02:24:55;;;;;;;;;;;;;;;-0.88;92.41;101516.03;2568403;30;138431;-37
2022/02/13 02:27:23;;;;;;;;;;;;;;;-0.94;93.10;101513.00;2567013;30;137579;-38
2022/02/13 02:29:51;;;;;;;;;;;;;;;-1.04;93.25;101507.50;2568650;30;138219;-36
2022/02/13 02:32:18;;;;;;;;;;;;;;;-1.08;93.90;101501.50;2568797;30;136981;-36
2022/02/13 02:34:47;;;;;;;;;;;;;;;-1.07;94.20;101495.19;2567291;30;138939;-36
2022/02/13 02:37:15;;;;;;;;;;;;;;;-1.13;94.28;101500.19;2568148;30;136816;-36
2022/02/13 02:39:42;;;;;;;;;;;;;;;-1.11;93.16;101488.34;2568363;30;137408;-36
2022/02/13 02:42:13;;;;;;;;;;;;;;;-1.12;94.06;101481.31;2568790;30;138044;-36
2022/02/13 02:44:40;;;;;;;;;;;;;;;-1.16;94.04;101466.44;2567145;30;138133;-36
2022/02/13 02:47:08;;;;;;;;;;;;;;;-1.05;93.95;101460.25;2569203;30;137501;-36
2022/02/13 02:49:36;;;;;;;;;;;;;;;-1.05;93.34;101455.75;2568036;30;137429;-36
2022/02/13 02:52:05;;;;;;;;;;;;;;;-1.03;93.79;101456.50;2568730;30;137048;-38
2022/02/13 02:54:33;;;;;;;;;;;;;;;-1.03;93.79;101453.81;2569221;30;137318;-38
2022/02/13 02:57:01;;;;;;;;;;;;;;;-1.03;93.68;101455.63;2568610;30;137134;-38
2022/02/13 02:59:29;;;;;;;;;;;;;;;-0.97;93.28;101456.97;2567533;30;138326;-38
2022/02/13 03:01:56;;;;;;;;;;;;;;;-1.02;93.25;101450.16;2568800;30;136863;-38
2022/02/13 03:04:24;;;;;;;;;;;;;;;-1.05;93.41;101444.19;2567982;30;139130;-38
2022/02/13 03:06:52;;;;;;;;;;;;;;;-1.00;93.31;101430.44;2568739;30;136960;-37
2022/02/13 03:09:20;;;;;;;;;;;;;;;-1.03;93.21;101428.84;2567316;30;138048;-38
2022/02/13 03:11:48;;;;;;;;;;;;;;;-1.13;93.39;101420.66;2568055;30;136976;-38
2022/02/13 03:14:15;;;;;;;;;;;;;;;-1.07;94.09;101420.19;2567699;30;138513;-38
2022/02/13 03:16:43;;;;;;;;;;;;;;;-1.11;93.97;101421.41;2568980;30;137003;-37
2022/02/13 03:19:12;;;;;;;;;;;;;;;-1.09;93.49;101413.25;2566662;30;138273;-38
2022/02/13 03:21:40;;;;;;;;;;;;;;;-1.11;94.10;101408.00;2569354;30;137245;-37
2022/02/13 03:24:09;;;;;;;;;;;;;;;-1.12;93.97;101408.97;2569409;30;138262;-38
2022/02/13 03:26:37;;;;;;;;;;;;;;;-1.02;93.46;101409.09;2567345;30;136832;-38
2022/02/13 03:29:05;;;;;;;;;;;;;;;-1.11;93.74;101399.97;2568279;30;139421;-38
2022/02/13 03:31:32;;;;;;;;;;;;;;;-1.12;93.90;101400.94;2568298;30;137951;-38
2022/02/13 03:34:00;;;;;;;;;;;;;;;-1.12;93.94;101394.75;2569054;30;138390;-38
2022/02/13 03:36:28;;;;;;;;;;;;;;;-1.18;94.27;101393.41;2567908;30;136966;-38
2022/02/13 03:38:56;;;;;;;;;;;;;;;-1.22;94.47;101391.94;2567469;30;138444;-38
2022/02/13 03:41:24;;;;;;;;;;;;;;;-1.18;94.00;101388.91;2567687;30;137127;-38
2022/02/13 03:43:52;;;;;;;;;;;;;;;-1.09;93.54;101391.84;2569448;30;138308;-38
2022/02/13 03:46:20;;;;;;;;;;;;;;;-1.02;92.84;101383.19;2567438;30;136959;-38
2022/02/13 03:48:48;;;;;;;;;;;;;;;-0.95;92.59;101375.50;2566414;30;137714;-38
2022/02/13 03:51:15;;;;;;;;;;;;;;;-1.00;92.83;101376.84;2568120;30;136774;-38
2022/02/13 03:53:43;;;;;;;;;;;;;;;-0.97;92.36;101377.44;2568779;30;138462;-38
2022/02/13 03:56:12;;;;;;;;;;;;;;;-1.08;93.02;101377.47;2569187;30;137156;-38
2022/02/13 03:58:40;;;;;;;;;;;;;;;-1.11;92.95;101375.88;2567791;30;137347;-38
2022/02/13 04:01:08;;;;;;;;;;;;;;;-1.17;93.07;101374.56;2569111;30;136999;-38
2022/02/13 04:03:35;;;;;;;;;;;;;;;-1.18;93.08;101380.88;2566921;30;137423;-38
2022/02/13 04:06:03;;;;;;;;;;;;;;;-1.21;93.96;101377.59;2568128;30;137265;-38
2022/02/13 04:08:31;;;;;;;;;;;;;;;-1.18;94.02;101380.00;2568403;30;137472;-38
2022/02/13 04:10:59;;;;;;;;;;;;;;;-1.21;93.92;101377.59;2567463;30;137788;-38
2022/02/13 04:13:27;;;;;;;;;;;;;;;-1.24;93.80;101381.34;2567279;30;137447;-38
2022/02/13 04:15:56;;;;;;;;;;;;;;;-1.25;93.81;101374.28;2568382;30;137234;-38
2022/02/13 04:18:24;;;;;;;;;;;;;;;-1.11;93.40;101375.03;2568518;30;138336;-38
2022/02/13 04:20:52;;;;;;;;;;;;;;;-1.25;93.73;101362.75;2568044;30;137201;-38
2022/02/13 04:23:19;;;;;;;;;;;;;;;-1.32;94.07;101365.91;2568718;30;139264;-36
2022/02/13 04:25:47;;;;;;;;;;;;;;;-1.40;94.36;101365.66;2569146;30;138086;-36
2022/02/13 04:28:15;;;;;;;;;;;;;;;-1.40;94.91;101357.63;2569621;30;137264;-36
2022/02/13 04:30:43;;;;;;;;;;;;;;;-1.42;95.42;101356.88;2567806;30;137378;-38
2022/02/13 04:33:11;;;;;;;;;;;;;;;-1.28;94.96;101354.97;2568565;30;137143;-38
2022/02/13 04:35:40;;;;;;;;;;;;;;;-1.26;94.36;101345.81;2567096;30;137007;-38
2022/02/13 04:38:08;;;;;;;;;;;;;;;-1.28;94.50;101338.88;2567708;30;138670;-38
2022/02/13 04:40:36;;;;;;;;;;;;;;;-1.36;94.69;101334.97;2568208;30;136660;-38
2022/02/13 04:43:03;;;;;;;;;;;;;;;-1.34;94.06;101333.03;2568094;30;137120;-37
2022/02/13 04:45:31;;;;;;;;;;;;;;;-1.37;94.38;101327.09;2566243;30;137227;-38
2022/02/13 04:47:59;;;;;;;;;;;;;;;-1.34;94.69;101327.66;2568734;30;138176;-38
2022/02/13 04:50:28;;;;;;;;;;;;;;;-1.35;94.07;101330.50;2568493;30;137811;-37
2022/02/13 04:52:55;;;;;;;;;;;;;;;-1.30;94.56;101322.94;2570260;30;137067;-37
2022/02/13 04:55:23;;;;;;;;;;;;;;;-1.39;94.66;101319.16;2568819;30;137168;-38
2022/02/13 04:57:51;;;;;;;;;;;;;;;-1.38;94.54;101315.50;2568777;30;139194;-38
2022/02/13 05:00:19;;;;;;;;;;;;;;;-1.31;95.06;101315.88;2569046;30;137166;-36
2022/02/13 05:02:50;;;;;;;;;;;;;;;-1.34;95.04;101305.41;2568121;30;138727;-38
2022/02/13 05:05:18;;;;;;;;;;;;;;;-1.37;94.50;101306.50;2568690;30;137870;-38
2022/02/13 05:07:45;;;;;;;;;;;;;;;-1.32;94.59;101314.19;2568558;30;138650;-38
2022/02/13 05:10:13;;;;;;;;;;;;;;;-1.42;94.94;101303.34;2569495;30;137895;-38
2022/02/13 05:12:41;;;;;;;;;;;;;;;-1.36;94.67;101300.16;2568189;30;139059;-38
2022/02/13 05:15:09;;;;;;;;;;;;;;;-1.29;93.88;101302.38;2568941;30;137909;-38
2022/02/13 05:17:37;;;;;;;;;;;;;;;-1.32;94.06;101295.44;2566919;30;137323;-38
2022/02/13 05:20:06;;;;;;;;;;;;;;;-1.39;94.10;101297.75;2568887;30;137029;-38
2022/02/13 05:22:35;;;;;;;;;;;;;;;-1.38;94.28;101294.09;2568803;30;137327;-38
2022/02/13 05:25:03;;;;;;;;;;;;;;;-1.50;94.02;101265.63;2568460;30;137755;-38
2022/02/13 05:27:30;;;;;;;;;;;;;;;-1.39;94.31;101288.88;2566194;30;138348;-36
2022/02/13 05:29:58;;;;;;;;;;;;;;;-1.38;94.26;101288.72;2569914;30;137258;-36
2022/02/13 05:32:28;;;;;;;;;;;;;;;-1.30;93.52;101285.44;2569377;30;137387;-37
2022/02/13 05:34:56;;;;;;;;;;;;;;;-1.38;93.83;101278.03;2566862;30;137066;-38
2022/02/13 05:37:23;;;;;;;;;;;;;;;-1.38;93.99;101279.88;2569372;30;136716;-38
2022/02/13 05:39:51;;;;;;;;;;;;;;;-1.37;93.91;101270.88;2568463;30;136941;-37
2022/02/13 05:42:19;;;;;;;;;;;;;;;-1.40;93.65;101274.63;2566656;30;138418;-38
2022/02/13 05:44:47;;;;;;;;;;;;;;;-1.35;94.16;101274.25;2568364;30;137217;-38
2022/02/13 05:47:15;;;;;;;;;;;;;;;-1.31;93.29;101267.69;2567958;30;138222;-38
2022/02/13 05:49:43;;;;;;;;;;;;;;;-1.33;93.45;101265.16;2567509;30;137598;-38
2022/02/13 05:52:10;;;;;;;;;;;;;;;-1.35;93.83;101259.03;2568273;30;138232;-38
2022/02/13 05:54:38;;;;;;;;;;;;;;;-1.39;93.58;101262.09;2568344;30;137237;-38
2022/02/13 05:57:06;;;;;;;;;;;;;;;-1.38;93.37;101261.97;2569400;30;139023;-38
2022/02/13 05:59:34;;;;;;;;;;;;;;;-1.45;93.96;101266.97;2568389;30;137141;-37
2022/02/13 06:02:03;;;;;;;;;;;;;;;-1.40;93.68;101269.28;2568140;30;138404;-38
2022/02/13 06:04:30;;;;;;;;;;;;;;;-1.29;93.09;101267.56;2568564;30;137209;-37
2022/02/13 06:06:58;;;;;;;;;;;;;;;-1.37;93.26;101266.34;2568739;30;138617;-37
2022/02/13 06:09:26;;;;;;;;;;;;;;;-1.38;93.47;101261.97;2568900;30;138088;-38
2022/02/13 06:11:54;;;;;;;;;;;;;;;-1.39;93.59;101254.91;2568932;30;138098;-37
2022/02/13 06:14:22;;;;;;;;;;;;;;;-1.39;93.75;101254.91;2568193;30;137771;-38
2022/02/13 06:16:50;;;;;;;;;;;;;;;-1.43;93.98;101255.31;2568533;30;138984;-38
2022/02/13 06:19:18;;;;;;;;;;;;;;;-1.39;94.11;101257.59;2567562;30;137255;-38
2022/02/13 06:21:45;;;;;;;;;;;;;;;-1.36;93.71;101256.50;2567519;30;138228;-37
2022/02/13 06:24:13;;;;;;;;;;;;;;;-1.37;93.64;101252.13;2568245;30;138151;-38
2022/02/13 06:26:41;;;;;;;;;;;;;;;-1.41;94.19;101262.22;2567384;30;139167;-38
2022/02/13 06:29:09;;;;;;;;;;;;;;;-1.34;93.38;101259.91;2567118;30;137960;-38
2022/02/13 06:31:37;;;;;;;;;;;;;;;-1.45;93.76;101266.97;2566429;30;138482;-38
2022/02/13 06:34:05;;;;;;;;;;;;;;;-1.43;94.03;101253.47;2568878;30;137807;-37
2022/02/13 06:36:33;;;;;;;;;;;;;;;-1.49;94.21;101256.63;2567607;30;138392;-38
2022/02/13 06:39:00;;;;;;;;;;;;;;;-1.47;94.64;101258.19;2565599;30;137703;-38
2022/02/13 06:41:28;;;;;;;;;;;;;;;-1.50;94.55;101258.44;2568560;30;138321;-38
2022/02/13 06:43:57;;;;;;;;;;;;;;;-1.49;93.95;101253.97;2568540;30;137233;-38
2022/02/13 06:46:25;;;;;;;;;;;;;;;-1.50;94.23;101260.28;2569084;30;139219;-37
2022/02/13 06:48:53;;;;;;;;;;;;;;;-1.41;93.83;101264.06;2565271;30;137454;-38
2022/02/13 06:51:21;;;;;;;;;;;;;;;-1.50;94.02;101268.31;2569114;30;138113;-38
2022/02/13 06:53:49;;;;;;;;;;;;;;;-1.38;93.99;101255.78;2568672;30;137799;-38
2022/02/13 06:56:17;;;;;;;;;;;;;;;-1.38;94.32;101255.78;2567458;30;138449;-37
2022/02/13 06:58:44;;;;;;;;;;;;;;;-1.36;94.24;101248.47;2565651;30;137441;-38
2022/02/13 07:01:14;;;;;;;;;;;;;;;-1.40;94.22;101247.03;2567770;30;139071;-38
2022/02/13 07:03:42;;;;;;;;;;;;;;;-1.39;94.27;101243.38;2568026;30;137197;-38
2022/02/13 07:06:12;;;;;;;;;;;;;;;-1.37;94.03;101249.44;2567746;30;138022;-38
2022/02/13 07:08:40;;;;;;;;;;;;;;;-1.30;94.33;101256.00;2569574;30;137076;-38
2022/02/13 07:11:08;;;;;;;;;;;;;;;-1.26;94.09;101246.72;2568167;30;139192;-38
2022/02/13 07:13:36;;;;;;;;;;;;;;;-1.16;94.04;101244.16;2569040;30;137343;-37
2022/02/13 07:16:04;;;;;;;;;;;;;;;-1.19;94.10;101236.38;2568796;30;137868;-38
2022/02/13 07:18:31;;;;;;;;;;;;;;;-1.19;94.60;101236.38;2566048;30;137273;-38
2022/02/13 07:21:00;;;;;;;;;;;;;;;-1.08;94.26;101225.63;2569451;30;137215;-37
2022/02/13 07:23:27;;;;;;;;;;;;;;;-1.03;93.99;101227.94;2568466;30;137451;-38
2022/02/13 07:25:55;;;;;;;;;;;;;;;-0.97;93.77;101231.94;2569196;30;137119;-38
2022/02/13 07:31:09;;;;;;;;;;;;;;;-0.89;93.09;101214.25;2568013;30;136853;-38
2022/02/13 07:33:37;;;;;;;;;;;;;;;-0.71;91.67;101207.50;2568858;30;137088;-38
2022/02/13 07:36:05;;;;;;;;;;;;;;;-0.72;91.40;101203.94;2569510;30;138340;-38
2022/02/13 07:38:33;;;;;;;;;;;;;;;-0.63;90.88;101205.00;2567418;30;136721;-38
2022/02/13 07:41:00;;;;;;;;;;;;;;;-0.57;90.23;101193.75;2568445;30;139712;-38
2022/02/13 07:43:28;;;;;;;;;;;;;;;-0.54;89.96;101204.22;2568176;30;137746;-38
2022/02/13 07:45:58;;;;;;;;;;;;;;;-0.50;90.04;101194.94;2569747;30;138098;-40
2022/02/13 07:48:26;;;;;;;;;;;;;;;-0.42;89.40;101196.13;2567435;30;137529;-40
2022/02/13 07:50:54;;;;;;;;;;;;;;;-0.35;89.26;101187.44;2567699;30;138586;-40
2022/02/13 07:53:23;;;;;;;;;;;;;;;-0.32;89.00;101197.03;2568386;30;137199;-40
2022/02/13 07:55:51;;;;;;;;;;;;;;;-0.20;88.32;101190.63;2567236;30;137674;-40
2022/02/13 07:58:18;;;;;;;;;;;;;;;-0.17;88.14;101182.31;2568185;30;137789;-40
2022/02/13 08:00:46;;;;;;;;;;;;;;;-0.03;87.67;101175.72;2568634;30;138430;-40
2022/02/13 08:03:14;;;;;;;;;;;;;;;0.07;86.44;101173.09;2569383;30;138174;-40
2022/02/13 08:05:42;;;;;;;;;;;;;;;0.12;86.82;101162.78;2566902;30;138476;-40
2022/02/13 08:08:10;;;;;;;;;;;;;;;0.17;86.40;101164.22;2569420;30;136968;-40
2022/02/13 08:10:38;;;;;;;;;;;;;;;0.28;85.69;101161.44;2569443;30;138413;-40
2022/02/13 08:13:06;;;;;;;;;;;;;;;0.31;85.42;101158.50;2568464;30;137413;-41
2022/02/13 08:15:34;;;;;;;;;;;;;;;0.37;85.02;101155.25;2568370;30;139782;-40
2022/02/13 08:18:06;;;;;;;;;;;;;;;0.43;85.45;101153.84;2569129;30;137087;-40
2022/02/13 08:20:34;;;;;;;;;;;;;;;0.53;84.61;101156.53;2569349;30;137852;-40
2022/02/13 08:23:02;;;;;;;;;;;;;;;0.63;85.06;101154.72;2568006;30;136968;-40
2022/02/13 08:25:30;;;;;;;;;;;;;;;0.71;84.56;101149.50;2567122;30;139050;-40
2022/02/13 08:27:58;;;;;;;;;;;;;;;0.80;83.22;101155.06;2568956;30;136815;-40
2022/02/13 08:30:27;;;;;;;;;;;;;;;0.87;82.24;101153.50;2568130;30;138376;-40
2022/02/13 08:32:58;;;;;;;;;;;;;;;0.97;82.35;101154.31;2569456;30;137099;-40
2022/02/13 08:35:25;;;;;;;;;;;;;;;1.06;82.51;101152.63;2567967;30;139019;-40
2022/02/13 08:37:53;;;;;;;;;;;;;;;1.11;81.29;101149.53;2567765;30;137223;-40
2022/02/13 08:40:21;;;;;;;;;;;;;;;1.15;81.44;101148.25;2568439;30;138316;-40
2022/02/13 08:42:49;;;;;;;;;;;;;;;1.25;80.75;101151.78;2567903;30;137163;-40
2022/02/13 08:45:17;;;;;;;;;;;;;;;1.34;80.17;101160.81;2569290;30;137844;-40
2022/02/13 08:47:44;;;;;;;;;;;;;;;1.40;79.92;101151.34;2568889;30;137918;-40
2022/02/13 08:50:12;;;;;;;;;;;;;;;1.49;79.66;101139.69;2569344;30;138390;-40
2022/02/13 08:52:40;;;;;;;;;;;;;;;1.62;79.97;101158.22;2568949;30;136674;-40
2022/02/13 08:55:08;;;;;;;;;;;;;;;1.76;79.30;101137.25;2569174;30;138351;-40
2022/02/13 08:57:36;;;;;;;;;;;;;;;1.91;78.95;101143.00;2569085;30;137223;-41
2022/02/13 09:00:06;;;;;;;;;;;;;;;2.03;77.31;101131.03;2568938;30;138261;-40
2022/02/13 09:02:33;;;;;;;;;;;;;;;2.21;78.12;101141.00;2566693;30;137483;-40
2022/02/13 09:05:02;;;;;;;;;;;;;;;2.32;76.64;101140.78;2568074;30;137940;-40
2022/02/13 09:07:30;;;;;;;;;;;;;;;2.40;76.33;101129.28;2567673;30;137199;-40
2022/02/13 09:10:02;;;;;;;;;;;;;;;2.50;77.12;101126.53;2568492;30;138104;-40
2022/02/13 09:12:30;;;;;;;;;;;;;;;2.64;76.17;101130.53;2566809;30;136922;-40
2022/02/13 09:14:58;;;;;;;;;;;;;;;2.73;75.29;101125.09;2570078;30;137298;-40
2022/02/13 09:17:26;;;;;;;;;;;;;;;2.78;74.68;101124.59;2569486;30;137252;-40
2022/02/13 09:19:53;;;;;;;;;;;;;;;2.88;74.47;101119.13;2569262;30;138440;-40
2022/02/13 09:22:21;;;;;;;;;;;;;;;2.94;74.56;101115.84;2568579;30;137226;-40
2022/02/13 09:24:49;;;;;;;;;;;;;;;3.02;74.18;101113.22;2569061;30;138427;-40
2022/02/13 09:27:20;;;;;;;;;;;;;;;3.10;73.03;101112.44;2568776;30;136715;-40
2022/02/13 09:29:47;;;;;;;;;;;;;;;3.14;73.74;101108.44;2568550;30;138885;-40
2022/02/13 09:32:15;;;;;;;;;;;;;;;3.24;73.91;101104.78;2568946;30;137880;-40
2022/02/13 09:34:43;;;;;;;;;;;;;;;3.31;72.93;101105.81;2565738;30;139430;-40
2022/02/13 09:37:11;;;;;;;;;;;;;;;3.39;72.60;101102.34;2569834;30;136856;-40
2022/02/13 09:39:41;;;;;;;;;;;;;;;3.45;71.86;101089.09;2566746;30;138968;-41
2022/02/13 09:42:09;;;;;;;;;;;;;;;3.57;71.52;101102.28;2568246;30;137349;-40
2022/02/13 09:44:37;;;;;;;;;;;;;;;3.67;70.58;101086.00;2568477;30;139144;-40
2022/02/13 09:47:05;;;;;;;;;;;;;;;3.73;70.91;101079.97;2569495;30;137253;-40
2022/02/13 09:49:33;;;;;;;;;;;;;;;3.84;70.22;101079.69;2567734;30;139372;-40
2022/02/13 09:52:01;;;;;;;;;;;;;;;3.92;69.72;101081.56;2569319;30;137433;-40
2022/02/13 09:54:29;;;;;;;;;;;;;;;4.00;69.27;101080.75;2568798;30;138644;-40
2022/02/13 09:57:59;;;;;;;;;;;;;;;4.08;69.42;101080.78;2568088;30;137937;-40
2022/02/13 09:59:51;;;;;;;;;;;;;;;4.12;69.12;101074.03;2568480;30;137327;-40
2022/02/13 10:02:33;;;;;;;;;;;;;;;4.28;69.59;101067.00;2568847;30;136903;-41
2022/02/13 10:05:05;;;;;;;;;;;;;;;4.39;69.28;101068.56;2567502;30;138289;-40
2022/02/13 10:07:33;;;;;;;;;;;;;;;4.50;68.17;101065.53;2567352;30;137420;-40
2022/02/13 10:10:03;;;;;;;;;;;;;;;4.59;68.52;101066.38;2568705;30;138292;-40
2022/02/13 10:12:40;;;;;;;;;;;;;;;4.68;68.26;101065.38;2568713;30;137378;-40
2022/02/13 10:15:22;;;;;;;;;;;;;;;4.77;66.83;101059.97;2568842;30;137237;-40
2022/02/13 10:17:56;;;;;;;;;;;;;;;4.88;68.40;101067.75;2568728;30;136963;-40
2022/02/13 10:20:25;;;;;;;;;;;;;;;4.98;68.26;101068.41;2566492;30;138835;-40
2022/02/13 10:22:53;;;;;;;;;;;;;;;4.99;66.28;101066.56;2568386;30;137363;-40
2022/02/13 10:25:21;;;;;;;;;;;;;;;5.02;65.71;101064.34;2568751;30;138624;-41
2022/02/13 10:27:49;;;;;;;;;;;;;;;5.09;66.44;101053.72;2568518;30;136909;-40
2022/02/13 10:30:36;;;;;;;;;;;;;;;5.19;66.21;101053.53;2565454;30;138223;-41
2022/02/13 10:33:17;;;;;;;;;;;;;;;5.30;66.45;101058.59;2568318;30;136978;-40
2022/02/13 10:36:04;;;;;;;;;;;;;;;5.39;65.58;101045.06;2567999;30;138436;-40
2022/02/13 10:38:33;;;;;;;;;;;;;;;5.45;65.03;101039.78;2568385;30;137289;-41
2022/02/13 10:41:10;;;;;;;;;;;;;;;5.42;64.67;101040.13;2568269;30;137729;-40
2022/02/13 10:43:58;;;;;;;;;;;;;;;5.46;65.36;101035.22;2568240;30;136777;-40
2022/02/13 10:46:31;;;;;;;;;;;;;;;5.37;63.37;101017.31;2567741;30;137031;-40
2022/02/13 10:48:59;;;;;;;;;;;;;;;5.48;64.14;101016.94;2567300;30;137003;-41
2022/02/13 10:51:29;;;;;;;;;;;;;;;5.61;64.86;101022.66;2566349;30;138373;-41
2022/02/13 10:53:57;;;;;;;;;;;;;;;5.69;64.36;101012.81;2567800;30;137712;-40
2022/02/13 10:56:25;;;;;;;;;;;;;;;5.81;64.08;101002.44;2568615;30;138131;-41
2022/02/13 10:58:59;;;;;;;;;;;;;;;5.86;64.28;101003.59;2569141;30;137041;-40
2022/02/13 11:01:27;;;;;;;;;;;;;;;5.97;64.27;101002.38;2567385;30;138317;-40
2022/02/13 11:04:06;;;;;;;;;;;;;;;6.08;65.23;101000.28;2568260;30;136783;-40
2022/02/13 11:06:35;;;;;;;;;;;;;;;6.15;63.99;100996.69;2567995;30;138216;-40
2022/02/13 11:09:25;;;;;;;;;;;;;;;6.21;63.22;100986.97;2567969;30;137745;-40
2022/02/13 11:11:55;;;;;;;;;;;;;;;6.33;64.05;100982.00;2567548;30;138616;-41
2022/02/13 11:14:41;;;;;;;;;;;;;;;6.43;63.03;100981.75;2566255;30;137442;-41
2022/02/13 11:17:08;;;;;;;;;;;;;;;6.42;61.48;100980.06;2567876;30;138485;-40
2022/02/13 11:19:40;;;;;;;;;;;;;;;6.52;62.60;100972.56;2564352;31;137037;-40
2022/02/13 11:22:08;;;;;;;;;;;;;;;6.59;61.77;100975.34;2568249;30;138408;-40
2022/02/13 11:24:36;;;;;;;;;;;;;;;6.74;61.55;100969.97;2566074;30;137236;-40
2022/02/13 11:27:05;;;;;;;;;;;;;;;6.88;61.37;100958.31;2568640;30;137964;-40
2022/02/13 11:29:56;;;;;;;;;;;;;;;7.04;62.53;100948.34;2567801;30;137783;-40
2022/02/13 11:32:36;;;;;;;;;;;;;;;7.19;61.01;100951.88;2567746;30;138397;-40
2022/02/13 11:35:06;;;;;;;;;;;;;;;7.26;61.91;100941.13;2567998;30;136756;-40
2022/02/13 11:37:41;;;;;;;;;;;;;;;7.36;60.81;100940.00;2566516;30;138935;-41
2022/02/13 11:40:29;;;;;;;;;;;;;;;7.45;61.28;100930.75;2568018;30;137048;-40
2022/02/13 11:42:57;;;;;;;;;;;;;;;7.62;60.97;100928.66;2567415;30;139102;-40
2022/02/13 11:45:24;;;;;;;;;;;;;;;7.81;61.46;100932.63;2568360;30;137263;-40
2022/02/13 11:47:52;;;;;;;;;;;;;;;7.90;59.12;100922.47;2566226;30;139270;-41
2022/02/13 11:50:25;;;;;;;;;;;;;;;8.01;60.30;100913.00;2568210;30;137400;-40
2022/02/13 11:52:57;;;;;;;;;;;;;;;8.03;60.17;100914.47;2567153;30;138546;-40
2022/02/13 11:55:27;;;;;;;;;;;;;;;8.07;60.33;100902.16;2567454;30;136643;-40
2022/02/13 11:57:54;;;;;;;;;;;;;;;8.05;58.98;100893.38;2566818;30;138679;-41
2022/02/13 12:00:32;;;;;;;;;;;;;;;8.08;58.95;100897.59;2568439;30;137426;-41
2022/02/13 12:03:10;;;;;;;;;;;;;;;8.21;59.22;100894.97;2568275;30;138546;-41
2022/02/13 12:05:38;;;;;;;;;;;;;;;8.38;60.10;100888.44;2567306;30;137327;-40
2022/02/13 12:08:06;;;;;;;;;;;;;;;8.44;60.60;100885.75;2565195;30;138683;-40
2022/02/13 12:10:36;;;;;;;;;;;;;;;8.42;59.99;100882.41;2567503;30;137334;-40
2022/02/13 12:13:05;;;;;;;;;;;;;;;8.31;59.30;100880.22;2568963;30;137706;-41
2022/02/13 12:15:32;;;;;;;;;;;;;;;8.29;58.17;100866.00;2566542;30;138017;-41
2022/02/13 12:18:10;;;;;;;;;;;;;;;8.34;58.74;100849.94;2567652;30;137820;-41
2022/02/13 12:20:42;;;;;;;;;;;;;;;8.48;59.19;100840.00;2568355;30;137030;-40
2022/02/13 12:23:11;;;;;;;;;;;;;;;8.55;58.93;100832.75;2567159;30;137498;-41
2022/02/13 12:25:41;;;;;;;;;;;;;;;8.62;61.26;100821.91;2567516;30;137898;-41
2022/02/13 12:28:10;;;;;;;;;;;;;;;8.68;58.62;100823.84;2567294;30;137622;-40
2022/02/13 12:30:45;;;;;;;;;;;;;;;8.74;59.68;100814.88;2566497;30;136731;-40
2022/02/13 12:33:16;;;;;;;;;;;;;;;8.80;59.47;100806.97;2569085;30;138096;-40
2022/02/13 12:35:45;;;;;;;;;;;;;;;8.75;57.18;100799.41;2565530;30;137301;-40
2022/02/13 12:38:13;;;;;;;;;;;;;;;8.77;58.29;100792.72;2567797;30;138456;-41
2022/02/13 12:40:44;;;;;;;;;;;;;;;8.78;57.58;100786.25;2567970;30;136628;-40
2022/02/13 12:43:16;;;;;;;;;;;;;;;8.76;56.91;100780.16;2568584;30;138397;-40